Latest Weather Observations for East Sale

IDV60801

Issued at 10:03 pm EST Wednesday 28 June 2017 (issued every 30 minutes, with the page automatically refreshed every 10 minutes)

About weather observations | Map of weather stations | Latest weather observations for VIC | Other Formats
Station Details ID: 085072 Name: EAST SALE AIRPORT Lat: -38.12 Lon: 147.13 Height: 4.6 m
Data from the previous 72 hours. | See also: Recent months at East Sale
Date/Time
EST
Temp
°C
App
Temp
°C
Dew
Point
°C
Rel
Hum
%
Delta-T
°C
Wind Press
QNH
hPa
Press
MSL
hPa
Rain since
9am
mm
Dir  Spd
km/h
Gust
km/h
Spd
kts
Gust
kts
28/10:00pm 3.2 -0.1 2.5 95 0.3 WNW 9 11 5 6 1022.8 1022.8 0.0
28/09:30pm 4.3 0.3 2.8 90 0.6 NW 13 15 7 8 1022.7 1022.7 0.0
28/09:00pm 6.1 2.4 4.3 88 0.8 NW 13 13 7 7 1022.8 1022.8 0.0
28/08:30pm 3.7 0.1 3.0 95 0.3 NNW 11 13 6 7 1022.8 1022.8 0.0
28/08:00pm 4.1 0.9 3.1 93 0.4 NW 9 11 5 6 1022.8 1022.8 0.0
28/07:30pm 5.9 3.6 4.7 92 0.5 WNW 6 6 3 3 1022.5 1022.5 0.0
28/07:00pm 6.5 4.1 5.3 92 0.5 WNW 7 9 4 5 1022.5 1022.5 0.0
28/06:30pm 6.2 3.6 4.0 86 0.9 WNW 7 9 4 5 1022.3 1022.3 0.0
28/06:00pm 7.3 4.8 5.0 85 1.0 NW 7 9 4 5 1022.2 1022.2 0.0
28/05:30pm 9.4 7.1 5.6 77 1.7 W 7 7 4 4 1022.1 1022.1 0.0
28/05:00pm 10.0 7.8 5.2 72 2.2 NW 6 9 3 5 1021.9 1021.9 0.0
28/04:30pm 12.8 10.5 5.9 63 3.2 SW 7 7 4 4 1021.8 1021.8 0.0
28/04:00pm 12.6 9.9 5.8 63 3.2 WSW 9 13 5 7 1021.7 1021.7 0.0
28/03:30pm 13.9 11.5 5.3 56 4.0 NW 7 9 4 5 1021.8 1021.8 0.0
28/03:00pm 13.7 10.5 5.3 57 3.9 NW 11 17 6 9 1022.1 1022.1 0.0
28/02:30pm 13.3 9.4 5.5 59 3.7 WNW 15 20 8 11 1022.1 1022.1 0.0
28/02:00pm 13.3 10.1 5.2 58 3.8 WNW 11 17 6 9 1022.2 1022.2 0.0
28/01:30pm 12.8 9.6 5.0 59 3.6 W 11 13 6 7 1022.5 1022.5 0.0
28/01:00pm 12.8 10.4 5.2 60 3.5 WNW 7 11 4 6 1022.7 1022.7 0.0
28/12:30pm 11.9 9.2 5.5 65 3.0 WNW 9 11 5 6 1023.0 1023.0 0.0
28/12:00pm 11.6 8.9 5.5 66 2.8 WNW 9 13 5 7 1023.4 1023.4 0.0
28/11:30am 10.5 7.1 5.7 72 2.2 WNW 13 17 7 9 1023.8 1023.8 0.0
28/11:00am 9.1 6.5 6.2 82 1.3 WNW 9 13 5 7 1024.2 1024.2 0.0
28/10:30am 7.7 5.2 6.5 92 0.5 WNW 9 9 5 5 1024.4 1024.4 0.0
28/10:00am 6.8 4.2 6.2 96 0.3 NW 9 11 5 6 1024.5 1024.5 0.0
28/09:30am 6.0 3.3 5.6 97 0.2 NW 9 13 5 7 1024.5 1024.5 0.0
28/09:00am 6.0 3.3 5.4 96 0.3 NNW 9 11 5 6 1024.3 1024.3 0.0
28/08:30am 5.4 3.1 5.0 97 0.2 NW 6 7 3 4 1024.1 1024.1 0.0
28/08:00am 5.2 2.7 4.8 97 0.2 NW 7 9 4 5 1023.9 1023.9 0.0
28/07:30am 5.1 2.6 4.7 97 0.2 W 7 9 4 5 1023.8 1023.8 0.0
28/07:00am 5.2 2.7 4.8 97 0.2 W 7 9 4 5 1023.7 1023.7 0.0
28/06:30am 5.0 2.1 4.7 98 0.1 WNW 9 11 5 6 1023.5 1023.5 0.0
28/06:00am 4.8 1.9 4.7 99 0.0 WNW 9 11 5 6 1023.4 1023.4 0.0
28/05:30am 4.2 1.8 4.1 99 0.0 W 6 9 3 5 1023.3 1023.3 0.0
28/05:00am 4.8 2.5 4.7 99 0.0 WNW 6 7 3 4 1023.2 1023.2 0.0
28/04:30am 4.8 2.4 4.5 98 0.1 WNW 6 7 3 4 1023.1 1023.1 0.0
28/04:00am 5.2 2.7 4.8 97 0.2 WNW 7 9 4 5 1023.4 1023.4 0.0
28/03:30am 6.1 3.9 5.5 96 0.3 NW 6 7 3 4 1023.4 1023.4 0.0
28/03:00am 6.3 4.5 5.4 94 0.4 NW 4 6 2 3 1023.4 1023.4 0.0
28/02:30am 7.0 5.0 6.1 94 0.4 WNW 6 7 3 4 1023.5 1023.5 0.0
28/02:00am 7.3 5.2 5.9 91 0.6 NW 6 6 3 3 1023.7 1023.7 0.0
28/01:30am 7.4 5.2 6.0 91 0.6 WNW 7 9 4 5 1023.8 1023.8 0.0
28/01:00am 7.6 4.9 5.6 87 0.9 WNW 9 11 5 6 1023.7 1023.7 0.0
28/12:30am 7.9 5.2 5.7 86 1.0 NW 9 9 5 5 1023.9 1023.9 0.0
28/12:00am 6.9 4.6 5.8 93 0.5 NW 7 7 4 4 1024.1 1024.1 0.0
 
Date/Time
EST
Temp
°C
App
Temp
°C
Dew
Point
°C
Rel
Hum
%
Delta-T
°C
Wind Press
QNH
hPa
Press
MSL
hPa
Rain since
9am
mm
Dir  Spd
km/h
Gust
km/h
Spd
kts
Gust
kts
27/11:30pm 7.4 6.6 6.3 93 0.5 CALM 0 0 0 0 1024.2 1024.2 0.0
27/11:00pm 7.7 6.9 6.3 91 0.6 CALM 0 0 0 0 1024.3 1024.3 0.0
27/10:30pm 7.5 6.6 6.1 91 0.6 CALM 0 0 0 0 1024.4 1024.4 0.0
27/10:00pm 8.0 7.3 6.8 92 0.6 CALM 0 0 0 0 1024.5 1024.5 0.0
27/09:30pm 8.1 6.2 6.6 90 0.7 NW 6 7 3 4 1024.5 1024.5 0.0
27/09:00pm 7.9 5.7 6.0 88 0.9 N 7 9 4 5 1024.5 1024.5 0.0
27/08:30pm 8.2 6.2 6.2 87 0.9 N 6 7 3 4 1024.7 1024.7 0.0
27/08:00pm 8.4 6.2 6.0 85 1.1 N 7 7 4 4 1024.7 1024.7 0.0
27/07:30pm 8.9 6.8 5.6 80 1.5 NNE 6 6 3 3 1024.5 1024.5 0.0
27/07:00pm 9.5 7.3 5.1 74 2.0 NNE 6 7 3 4 1024.6 1024.6 0.0
27/06:30pm 9.2 7.1 5.8 79 1.6 NNE 6 9 3 5 1024.6 1024.6 0.0
27/06:00pm 9.7 8.6 5.3 74 2.0 CALM 0 7 0 4 1024.4 1024.4 0.0
27/05:30pm 9.7 8.8 6.2 79 1.6 CALM 0 0 0 0 1024.4 1024.4 0.0
27/05:00pm 10.8 9.7 4.9 67 2.7 CALM 0 4 0 2 1024.3 1024.3 0.0
27/04:30pm 10.7 8.5 5.5 70 2.4 SW 6 7 3 4 1024.2 1024.2 0.0
27/04:00pm 12.0 9.6 5.4 64 3.0 WSW 7 11 4 6 1024.1 1024.1 0.0
27/03:30pm 12.5 10.3 5.2 61 3.4 WNW 6 9 3 5 1024.0 1024.0 0.0
27/03:00pm 12.7 10.2 4.9 59 3.6 WSW 7 9 4 5 1024.0 1024.0 0.0
27/02:30pm 12.5 10.8 5.7 63 3.2 W 4 7 2 4 1023.8 1023.8 0.0
27/02:00pm 12.4 10.1 4.9 60 3.4 WNW 6 7 3 4 1023.9 1023.9 0.0
27/01:30pm 12.6 10.2 5.3 61 3.4 NNW 7 9 4 5 1024.2 1024.2 0.0
27/01:00pm 12.4 10.3 5.6 63 3.2 WNW 6 9 3 5 1024.4 1024.4 0.0
27/12:30pm 11.4 9.2 6.3 71 2.4 W 7 11 4 6 1024.9 1024.9 0.0
27/12:00pm 10.4 8.1 5.6 72 2.2 NW 7 9 4 5 1025.4 1025.4 0.0
27/11:30am 10.2 7.8 6.9 80 1.6 WNW 9 11 5 6 1025.9 1025.9 0.0
27/11:00am 7.8 5.4 5.4 85 1.1 W 7 9 4 5 1026.4 1026.4 0.0
27/10:30am 7.3 5.0 5.9 91 0.6 WNW 7 11 4 6 1026.7 1026.7 0.0
27/10:00am 5.4 2.2 5.3 99 0.0 WNW 11 13 6 7 1026.9 1026.9 0.0
27/09:30am 4.4 1.5 4.4 100 0.0 WNW 9 13 5 7 1026.9 1026.9 0.0
27/09:00am 3.0 0.3 2.9 99 0.0 SW 6 7 3 4 1026.8 1026.8 0.0
27/08:30am 0.8 -2.8 0.7 99 0.0 W 9 11 5 6 1026.9 1026.9 0.0
27/08:19am 0.5 -2.8 0.4 99 0.0 W 7 9 4 5 1026.8 1026.8 0.0
27/08:03am 0.3 -3.0 0.2 99 0.0 WNW 7 9 4 5 1026.7 1026.7 0.0
27/08:00am 0.2 -3.1 0.1 99 0.0 NW 7 9 4 5 1026.7 1026.7 0.0
27/07:30am 0.4 -1.5 0.3 99 0.0 CALM 0 4 0 2 1026.5 1026.5 0.0
27/07:00am 0.3 -2.8 0.2 99 0.0 WNW 6 7 3 4 1026.5 1026.5 0.0
27/06:48am 0.2 -3.1 0.1 99 0.0 NW 7 9 4 5 1026.6 1026.6 0.0
27/06:42am 0.2 -3.1 0.1 99 0.0 NW 7 7 4 4 1026.5 1026.5 0.0
27/06:30am 0.0 -3.1 -0.1 99 0.0 WNW 6 7 3 4 1026.5 1026.5 0.0
27/06:23am 0.1 -3.0 0.0 99 0.0 WNW 6 7 3 4 1026.5 1026.5 0.0
27/06:08am 0.6 -2.4 0.5 99 0.0 NW 6 7 3 4 1026.4 1026.4 0.0
27/06:00am 0.6 -2.6 0.5 99 0.0 NW 7 7 4 4 1026.4 1026.4 0.0
27/05:56am 0.7 -2.5 0.6 99 0.0 NW 7 9 4 5 1026.4 1026.4 0.0
27/05:30am 1.2 -0.6 1.1 99 0.0 CALM 0 7 0 4 1026.3 1026.3 0.0
27/05:11am 1.3 -1.6 1.2 99 0.0 WNW 6 7 3 4 1026.4 1026.4 0.0
27/05:05am 1.2 -1.4 1.1 99 0.0 WNW 4 7 2 4 1026.4 1026.4 0.0
27/05:00am 1.2 -1.4 1.1 99 0.0 W 4 6 2 3 1026.4 1026.4 0.0
27/04:52am 1.0 -2.0 0.9 99 0.0 W 6 7 3 4 1026.3 1026.3 0.0
27/04:35am 1.2 -1.8 1.1 99 0.0 W 6 7 3 4 1026.5 1026.5 0.0
27/04:30am 1.2 -1.9 1.1 99 0.0 W 7 9 4 5 1026.5 1026.5 0.0
27/04:26am 1.0 -2.6 0.9 99 0.0 W 9 11 5 6 1026.5 1026.5 0.0
27/04:25am 1.0 -2.6 0.9 99 0.0 W 9 11 5 6 1026.5 1026.5 0.0
27/04:00am 0.7 -2.9 0.6 99 0.0 WNW 9 11 5 6 1026.6 1026.6 0.0
27/03:39am 0.1 -3.6 0.0 99 0.0 WNW 9 13 5 7 1026.7 1026.7 0.0
27/03:34am 0.1 -3.2 0.0 99 0.0 WNW 7 13 4 7 1026.7 1026.7 0.0
27/03:30am 0.2 -2.9 0.1 99 0.0 WNW 6 9 3 5 1026.7 1026.7 0.0
27/03:19am 0.4 -2.7 0.3 99 0.0 WSW 6 7 3 4 1026.6 1026.6 0.0
27/03:00am 0.5 -2.8 0.4 99 0.0 WSW 7 7 4 4 1026.6 1026.6 0.0
27/02:54am 0.5 -2.8 0.4 99 0.0 WSW 7 7 4 4 1026.5 1026.5 0.0
27/02:30am 0.3 -3.0 0.2 99 0.0 SW 7 9 4 5 1026.5 1026.5 0.0
27/02:07am 1.0 -2.0 0.9 99 0.0 WSW 6 9 3 5 1026.4 1026.4 0.0
27/02:00am 0.8 -2.2 0.7 99 0.0 WNW 6 9 3 5 1026.2 1026.2 0.0
27/01:43am 1.1 -2.4 1.0 99 0.0 NW 9 11 5 6 1026.2 1026.2 0.0
27/01:30am 0.2 -3.5 0.1 99 0.0 NW 9 11 5 6 1026.2 1026.2 0.0
27/01:24am 0.1 -3.2 0.0 99 0.0 NW 7 9 4 5 1026.2 1026.2 0.0
27/01:05am 0.7 -1.6 0.6 99 0.0 NW 2 9 1 5 1026.0 1026.0 0.0
27/01:00am 1.1 -0.7 1.0 99 0.0 CALM 0 0 0 0 1026.0 1026.0 0.0
27/12:30am 1.5 -2.0 1.4 99 0.0 NW 9 9 5 5 1026.1 1026.1 0.0
27/12:27am 1.7 -1.4 1.6 99 0.0 NW 7 9 4 5 1026.0 1026.0 0.0
27/12:11am 1.1 -2.1 1.0 99 0.0 NW 7 7 4 4 1026.2 1026.2 0.0
27/12:00am 1.2 -1.9 1.1 99 0.0 NW 7 7 4 4 1026.3 1026.3 0.0
 
Date/Time
EST
Temp
°C
App
Temp
°C
Dew
Point
°C
Rel
Hum
%
Delta-T
°C
Wind Press
QNH
hPa
Press
MSL
hPa
Rain since
9am
mm
Dir  Spd
km/h
Gust
km/h
Spd
kts
Gust
kts
26/11:37pm 0.8 -1.1 0.7 99 0.0 CALM 0 0 0 0 1026.4 1026.4 0.0
26/11:30pm 1.9 0.2 1.8 99 0.0 CALM 0 0 0 0 1026.4 1026.4 0.0
26/11:12pm 2.2 -0.6 2.1 99 0.0 WNW 6 7 3 4 1026.5 1026.5 0.0
26/11:00pm 1.9 -0.9 1.8 99 0.0 NW 6 9 3 5 1026.5 1026.5 0.0
26/10:47pm 2.2 -0.6 2.1 99 0.0 NW 6 9 3 5 1026.5 1026.5 0.0
26/10:30pm 3.7 -0.2 3.6 99 0.0 NW 13 15 7 8 - - 0.0
26/10:00pm 4.8 1.1 4.7 99 0.0 NW 13 15 7 8 1026.2 1026.2 0.0
26/09:30pm 4.4 0.7 4.3 99 0.0 NW 13 15 7 8 1026.2 1026.2 0.0
26/09:00pm 2.9 -0.7 2.8 99 0.0 NNW 11 11 6 6 1026.3 1026.3 0.0
26/08:30pm 3.6 0.8 3.3 98 0.1 NNW 7 9 4 5 1026.1 1026.1 0.0
26/08:00pm 4.3 2.1 3.6 95 0.3 NW 4 7 2 4 1026.0 1026.0 0.0
26/07:30pm 6.7 4.5 6.0 95 0.3 WNW 7 9 4 5 1025.7 1025.7 0.0
26/07:00pm 7.4 5.3 6.7 95 0.3 NW 7 9 4 5 1025.7 1025.7 0.0
26/06:30pm 8.1 5.6 6.4 89 0.8 WSW 9 13 5 7 1025.1 1025.1 0.0
26/06:00pm 8.9 6.0 6.7 86 1.0 W 11 13 6 7 1024.6 1024.6 0.0
26/05:30pm 9.4 6.2 6.7 83 1.3 W 13 19 7 10 1024.2 1024.2 0.0
26/05:00pm 10.5 7.3 6.8 78 1.7 W 13 17 7 9 1024.0 1024.0 0.0
26/04:30pm 11.9 8.9 7.6 75 2.1 WSW 13 19 7 10 1023.9 1023.9 0.0
26/04:00pm 12.0 8.6 7.5 74 2.2 W 15 20 8 11 1023.8 1023.8 0.0
26/03:30pm 12.9 9.4 7.4 69 2.7 WSW 15 22 8 12 1023.6 1023.6 0.0
26/03:00pm 12.1 8.6 7.4 73 2.3 W 15 22 8 12 1023.2 1023.2 0.0
26/02:30pm 12.4 9.0 7.5 72 2.4 WNW 15 22 8 12 1023.1 1023.1 0.0
26/02:00pm 12.2 8.1 7.9 75 2.1 WNW 19 24 10 13 1022.9 1022.9 0.0
26/01:30pm 12.0 8.7 7.9 76 2.0 WNW 15 20 8 11 1023.0 1023.0 0.0
26/01:00pm 12.0 7.9 7.7 75 2.1 W 19 22 10 12 1023.0 1023.0 0.0
26/12:30pm 11.9 7.6 8.0 77 1.9 WNW 20 28 11 15 1023.2 1023.2 0.0
26/12:02pm 11.8 7.3 8.5 80 1.6 WNW 22 30 12 16 1023.4 1023.4 0.0
26/12:00pm 11.8 7.2 8.1 78 1.8 WNW 22 30 12 16 1023.4 1023.4 0.0
26/11:30am 11.0 6.8 8.4 84 1.3 WNW 20 28 11 15 1023.5 1023.5 0.0
26/11:00am 10.6 5.9 7.8 83 1.3 W 22 32 12 17 1023.5 1023.5 0.0
26/10:30am 10.4 6.2 8.2 86 1.1 W 20 30 11 16 1023.4 1023.4 0.0
26/10:00am 10.6 6.0 8.2 85 1.2 W 22 32 12 17 1023.2 1023.2 0.0
26/09:50am 10.3 6.3 8.1 86 1.1 W 19 26 10 14 1023.0 1023.0 0.0
26/09:30am 9.8 6.5 8.2 90 0.8 W 15 20 8 11 1022.9 1022.9 0.0
26/09:16am 9.5 6.5 7.8 89 0.8 WSW 13 17 7 9 1022.7 1022.7 0.0
26/09:00am 9.5 5.8 7.9 90 0.8 WSW 17 26 9 14 1022.5 1022.5 0.0
26/08:30am 9.6 5.2 7.5 87 1.0 W 20 30 11 16 1021.8 1021.8 0.0
26/08:00am 9.4 5.6 7.5 88 0.9 WSW 17 26 9 14 1021.4 1021.4 0.0
26/07:30am 9.3 5.9 7.7 90 0.8 WSW 15 20 8 11 1021.0 1021.0 0.0
26/07:00am 8.9 5.4 7.4 90 0.7 W 15 22 8 12 1020.7 1020.7 0.0
26/06:30am 8.8 5.3 7.1 89 0.8 W 15 20 8 11 1020.1 1020.1 0.0
26/06:00am 8.8 4.9 7.3 90 0.7 W 17 22 9 12 1019.8 1019.8 0.0
26/05:30am 8.3 4.3 6.6 89 0.8 W 17 20 9 11 1019.4 1019.4 0.0
26/05:00am 9.1 5.2 7.1 87 0.9 W 17 22 9 12 1019.1 1019.1 0.0
26/04:30am 9.7 5.9 7.5 86 1.0 W 17 26 9 14 1018.9 1018.9 0.0
26/04:00am 9.6 6.1 7.4 86 1.0 WSW 15 20 8 11 1018.9 1018.9 0.0
26/03:30am 9.2 6.1 7.2 87 0.9 W 13 19 7 10 1018.7 1018.7 0.0
26/03:00am 9.3 5.8 7.4 88 0.9 W 15 20 8 11 1018.5 1018.5 0.0
26/02:30am 8.9 6.2 7.2 89 0.8 W 11 17 6 9 1018.2 1018.2 0.0
26/02:00am 9.0 4.7 7.0 87 0.9 WSW 19 24 10 13 1017.9 1017.9 0.0
26/01:30am 9.3 6.2 7.1 86 1.0 WSW 13 19 7 10 1017.7 1017.7 0.0
26/01:00am 9.7 6.2 7.1 84 1.2 W 15 24 8 13 1017.5 1017.5 0.0
26/12:30am 10.0 6.1 6.9 81 1.5 WNW 17 22 9 12 1017.5 1017.5 0.0
26/12:00am 10.1 5.9 7.3 83 1.3 W 19 22 10 12 1017.3 1017.3 0.0
 
Date/Time
EST
Temp
°C
App
Temp
°C
Dew
Point
°C
Rel
Hum
%
Delta-T
°C
Wind Press
QNH
hPa
Press
MSL
hPa
Rain since
9am
mm
Dir  Spd
km/h
Gust
km/h
Spd
kts
Gust
kts
25/11:30pm 10.1 6.6 7.2 82 1.4 W 15 24 8 13 1017.2 1017.2 0.0
25/11:00pm 10.1 6.5 6.6 79 1.6 W 15 20 8 11 1017.2 1017.2 0.0
25/10:30pm 10.7 6.1 6.5 75 2.0 W 20 26 11 14 1016.8 1016.8 0.0

Other Formats:

Comma delimited format used in spreadsheet applications
http://www.bom.gov.au/fwo/IDV60801/IDV60801.94907.axf

JavaScript Object Notation format (JSON) in row-major order
http://www.bom.gov.au/fwo/IDV60801/IDV60801.94907.json